sensor_id;sensor_type;location;lat;lon;timestamp;temperature;humidity
12254;DHT22;6189;52.526;13.390;2023-08-06T00:01:45;19.40;99.90
12254;DHT22;6189;52.526;13.390;2023-08-06T00:04:32;19.40;99.90
12254;DHT22;6189;52.526;13.390;2023-08-06T00:07:19;19.40;99.90
12254;DHT22;6189;52.526;13.390;2023-08-06T00:10:07;19.00;99.90
12254;DHT22;6189;52.526;13.390;2023-08-06T00:12:54;19.10;99.90
12254;DHT22;6189;52.526;13.390;2023-08-06T00:15:43;19.00;99.90
12254;DHT22;6189;52.526;13.390;2023-08-06T00:18:30;19.20;99.90
12254;DHT22;6189;52.526;13.390;2023-08-06T00:21:18;19.20;99.90
12254;DHT22;6189;52.526;13.390;2023-08-06T00:24:05;19.40;99.90
12254;DHT22;6189;52.526;13.390;2023-08-06T00:26:53;19.40;99.90
12254;DHT22;6189;52.526;13.390;2023-08-06T00:29:40;19.50;99.90
12254;DHT22;6189;52.526;13.390;2023-08-06T00:32:29;19.50;99.90
12254;DHT22;6189;52.526;13.390;2023-08-06T00:35:16;19.60;99.90
12254;DHT22;6189;52.526;13.390;2023-08-06T00:38:08;19.60;99.90
12254;DHT22;6189;52.526;13.390;2023-08-06T00:40:56;19.50;99.90
12254;DHT22;6189;52.526;13.390;2023-08-06T00:43:43;19.50;99.90
12254;DHT22;6189;52.526;13.390;2023-08-06T00:46:31;19.50;99.90
12254;DHT22;6189;52.526;13.390;2023-08-06T00:49:20;19.60;99.90
12254;DHT22;6189;52.526;13.390;2023-08-06T00:52:07;19.50;99.90
12254;DHT22;6189;52.526;13.390;2023-08-06T00:54:58;19.50;99.90
12254;DHT22;6189;52.526;13.390;2023-08-06T00:57:46;19.40;99.90
12254;DHT22;6189;52.526;13.390;2023-08-06T01:00:33;19.50;99.90
12254;DHT22;6189;52.526;13.390;2023-08-06T01:03:21;19.40;99.90
12254;DHT22;6189;52.526;13.390;2023-08-06T01:06:11;19.40;99.90
12254;DHT22;6189;52.526;13.390;2023-08-06T01:09:01;19.20;99.90
12254;DHT22;6189;52.526;13.390;2023-08-06T01:11:54;19.00;99.90
12254;DHT22;6189;52.526;13.390;2023-08-06T01:14:45;18.90;99.90
12254;DHT22;6189;52.526;13.390;2023-08-06T01:17:35;18.70;99.90
12254;DHT22;6189;52.526;13.390;2023-08-06T01:20:28;18.70;99.90
12254;DHT22;6189;52.526;13.390;2023-08-06T01:23:15;18.70;99.90
12254;DHT22;6189;52.526;13.390;2023-08-06T01:26:05;18.90;99.90
12254;DHT22;6189;52.526;13.390;2023-08-06T01:28:56;19.10;99.90
12254;DHT22;6189;52.526;13.390;2023-08-06T01:31:46;19.20;99.90
12254;DHT22;6189;52.526;13.390;2023-08-06T01:34:35;19.10;99.90
12254;DHT22;6189;52.526;13.390;2023-08-06T01:37:24;19.20;99.90
12254;DHT22;6189;52.526;13.390;2023-08-06T01:40:11;19.20;99.90
12254;DHT22;6189;52.526;13.390;2023-08-06T01:42:59;19.30;99.90
12254;DHT22;6189;52.526;13.390;2023-08-06T01:45:46;19.30;99.90
12254;DHT22;6189;52.526;13.390;2023-08-06T01:48:33;19.40;99.90
12254;DHT22;6189;52.526;13.390;2023-08-06T01:51:21;19.30;99.90
12254;DHT22;6189;52.526;13.390;2023-08-06T01:54:11;19.30;99.90
12254;DHT22;6189;52.526;13.390;2023-08-06T01:56:58;19.30;99.90
12254;DHT22;6189;52.526;13.390;2023-08-06T01:59:46;19.30;99.90
12254;DHT22;6189;52.526;13.390;2023-08-06T02:02:33;19.20;99.90
12254;DHT22;6189;52.526;13.390;2023-08-06T02:05:21;19.20;99.90
12254;DHT22;6189;52.526;13.390;2023-08-06T02:08:08;19.20;99.90
12254;DHT22;6189;52.526;13.390;2023-08-06T02:10:56;19.10;99.90
12254;DHT22;6189;52.526;13.390;2023-08-06T02:13:49;19.20;99.90
12254;DHT22;6189;52.526;13.390;2023-08-06T02:16:36;19.20;99.90
12254;DHT22;6189;52.526;13.390;2023-08-06T02:19:24;19.20;99.90
12254;DHT22;6189;52.526;13.390;2023-08-06T02:22:11;19.20;99.90
12254;DHT22;6189;52.526;13.390;2023-08-06T02:24:58;19.20;99.90
12254;DHT22;6189;52.526;13.390;2023-08-06T02:27:48;19.20;99.90
12254;DHT22;6189;52.526;13.390;2023-08-06T02:30:36;18.80;99.90
12254;DHT22;6189;52.526;13.390;2023-08-06T02:33:23;18.70;99.90
12254;DHT22;6189;52.526;13.390;2023-08-06T02:36:10;18.80;99.90
12254;DHT22;6189;52.526;13.390;2023-08-06T02:38:57;18.80;99.90
12254;DHT22;6189;52.526;13.390;2023-08-06T02:41:44;18.90;99.90
12254;DHT22;6189;52.526;13.390;2023-08-06T02:44:33;18.80;99.90
12254;DHT22;6189;52.526;13.390;2023-08-06T02:47:20;18.90;99.90
12254;DHT22;6189;52.526;13.390;2023-08-06T02:50:07;19.00;99.90
12254;DHT22;6189;52.526;13.390;2023-08-06T02:52:55;19.00;99.90
12254;DHT22;6189;52.526;13.390;2023-08-06T02:55:45;19.00;99.90
12254;DHT22;6189;52.526;13.390;2023-08-06T02:58:35;19.10;99.90
12254;DHT22;6189;52.526;13.390;2023-08-06T03:01:24;19.00;99.90
12254;DHT22;6189;52.526;13.390;2023-08-06T03:04:12;19.00;99.90
12254;DHT22;6189;52.526;13.390;2023-08-06T03:07:02;19.00;99.90
12254;DHT22;6189;52.526;13.390;2023-08-06T03:09:49;18.90;99.90
12254;DHT22;6189;52.526;13.390;2023-08-06T03:12:36;18.90;99.90
12254;DHT22;6189;52.526;13.390;2023-08-06T03:15:23;18.90;99.90
12254;DHT22;6189;52.526;13.390;2023-08-06T03:18:12;18.90;99.90
12254;DHT22;6189;52.526;13.390;2023-08-06T03:20:59;18.90;99.90
12254;DHT22;6189;52.526;13.390;2023-08-06T03:23:47;18.90;99.90
12254;DHT22;6189;52.526;13.390;2023-08-06T03:26:34;18.80;99.90
12254;DHT22;6189;52.526;13.390;2023-08-06T03:29:21;18.80;99.90
12254;DHT22;6189;52.526;13.390;2023-08-06T03:32:09;18.80;99.90
12254;DHT22;6189;52.526;13.390;2023-08-06T03:34:58;18.70;99.90
12254;DHT22;6189;52.526;13.390;2023-08-06T03:37:45;18.60;99.90
12254;DHT22;6189;52.526;13.390;2023-08-06T03:40:36;18.70;99.90
12254;DHT22;6189;52.526;13.390;2023-08-06T03:43:23;18.60;99.90
12254;DHT22;6189;52.526;13.390;2023-08-06T03:46:11;18.70;99.90
12254;DHT22;6189;52.526;13.390;2023-08-06T03:48:59;18.70;99.90
12254;DHT22;6189;52.526;13.390;2023-08-06T03:51:48;18.60;99.90
12254;DHT22;6189;52.526;13.390;2023-08-06T03:54:37;18.50;99.90
12254;DHT22;6189;52.526;13.390;2023-08-06T03:57:24;18.60;99.90
12254;DHT22;6189;52.526;13.390;2023-08-06T04:00:12;18.60;99.90
12254;DHT22;6189;52.526;13.390;2023-08-06T04:02:59;18.60;99.90
12254;DHT22;6189;52.526;13.390;2023-08-06T04:05:49;18.60;99.90
12254;DHT22;6189;52.526;13.390;2023-08-06T04:08:41;18.60;99.90
12254;DHT22;6189;52.526;13.390;2023-08-06T04:11:28;18.60;99.90
12254;DHT22;6189;52.526;13.390;2023-08-06T04:14:18;18.50;99.90
12254;DHT22;6189;52.526;13.390;2023-08-06T04:17:05;18.60;99.90
12254;DHT22;6189;52.526;13.390;2023-08-06T04:19:53;18.30;99.90
12254;DHT22;6189;52.526;13.390;2023-08-06T04:22:40;18.00;99.90
12254;DHT22;6189;52.526;13.390;2023-08-06T04:25:29;18.00;99.90
12254;DHT22;6189;52.526;13.390;2023-08-06T04:28:19;18.30;99.90
12254;DHT22;6189;52.526;13.390;2023-08-06T04:31:07;18.10;99.90
12254;DHT22;6189;52.526;13.390;2023-08-06T04:33:54;17.80;99.90
12254;DHT22;6189;52.526;13.390;2023-08-06T04:36:42;18.10;99.90
12254;DHT22;6189;52.526;13.390;2023-08-06T04:39:29;18.10;99.90
12254;DHT22;6189;52.526;13.390;2023-08-06T04:42:19;17.90;99.90
12254;DHT22;6189;52.526;13.390;2023-08-06T04:45:07;17.60;99.90
12254;DHT22;6189;52.526;13.390;2023-08-06T04:47:57;17.60;99.90
12254;DHT22;6189;52.526;13.390;2023-08-06T04:50:47;17.40;99.90
12254;DHT22;6189;52.526;13.390;2023-08-06T04:53:35;17.30;99.90
12254;DHT22;6189;52.526;13.390;2023-08-06T04:56:23;17.10;99.90
12254;DHT22;6189;52.526;13.390;2023-08-06T04:59:12;17.40;99.90
12254;DHT22;6189;52.526;13.390;2023-08-06T05:02:00;17.60;99.90
12254;DHT22;6189;52.526;13.390;2023-08-06T05:04:48;17.90;99.90
12254;DHT22;6189;52.526;13.390;2023-08-06T05:07:35;17.90;99.90
12254;DHT22;6189;52.526;13.390;2023-08-06T05:10:24;18.00;99.90
12254;DHT22;6189;52.526;13.390;2023-08-06T05:13:12;18.20;99.90
12254;DHT22;6189;52.526;13.390;2023-08-06T05:16:01;18.30;99.90
12254;DHT22;6189;52.526;13.390;2023-08-06T05:18:48;18.40;99.90
12254;DHT22;6189;52.526;13.390;2023-08-06T05:21:35;18.40;99.90
12254;DHT22;6189;52.526;13.390;2023-08-06T05:24:23;18.40;99.90
12254;DHT22;6189;52.526;13.390;2023-08-06T05:27:10;18.40;99.90
12254;DHT22;6189;52.526;13.390;2023-08-06T05:29:58;18.20;99.90
12254;DHT22;6189;52.526;13.390;2023-08-06T05:32:47;18.20;99.90
12254;DHT22;6189;52.526;13.390;2023-08-06T05:35:34;18.30;99.90
12254;DHT22;6189;52.526;13.390;2023-08-06T05:38:22;18.40;99.90
12254;DHT22;6189;52.526;13.390;2023-08-06T05:41:09;18.40;99.90
12254;DHT22;6189;52.526;13.390;2023-08-06T05:43:57;18.30;99.90
12254;DHT22;6189;52.526;13.390;2023-08-06T05:46:44;18.40;99.90
12254;DHT22;6189;52.526;13.390;2023-08-06T05:49:33;18.30;99.90
12254;DHT22;6189;52.526;13.390;2023-08-06T05:52:21;18.40;99.90
12254;DHT22;6189;52.526;13.390;2023-08-06T05:55:08;18.40;99.90
12254;DHT22;6189;52.526;13.390;2023-08-06T05:57:56;18.40;99.90
12254;DHT22;6189;52.526;13.390;2023-08-06T06:00:43;18.40;99.90
12254;DHT22;6189;52.526;13.390;2023-08-06T06:03:31;18.40;99.90
12254;DHT22;6189;52.526;13.390;2023-08-06T06:06:20;18.50;99.90
12254;DHT22;6189;52.526;13.390;2023-08-06T06:09:08;18.50;99.90
12254;DHT22;6189;52.526;13.390;2023-08-06T06:11:55;18.50;99.90
12254;DHT22;6189;52.526;13.390;2023-08-06T06:14:42;18.60;99.90
12254;DHT22;6189;52.526;13.390;2023-08-06T06:17:30;18.60;99.90
12254;DHT22;6189;52.526;13.390;2023-08-06T06:20:17;18.70;99.90
12254;DHT22;6189;52.526;13.390;2023-08-06T06:23:09;18.60;99.90
12254;DHT22;6189;52.526;13.390;2023-08-06T06:25:56;18.60;99.90
12254;DHT22;6189;52.526;13.390;2023-08-06T06:28:43;18.60;99.90
12254;DHT22;6189;52.526;13.390;2023-08-06T06:31:30;18.70;99.90
12254;DHT22;6189;52.526;13.390;2023-08-06T06:34:18;18.70;99.90
12254;DHT22;6189;52.526;13.390;2023-08-06T06:37:05;18.70;99.90
12254;DHT22;6189;52.526;13.390;2023-08-06T06:39:54;18.70;99.90
12254;DHT22;6189;52.526;13.390;2023-08-06T06:42:42;18.70;99.90
12254;DHT22;6189;52.526;13.390;2023-08-06T06:45:29;18.70;99.90
12254;DHT22;6189;52.526;13.390;2023-08-06T06:48:16;18.70;99.90
12254;DHT22;6189;52.526;13.390;2023-08-06T06:51:04;18.70;99.90
12254;DHT22;6189;52.526;13.390;2023-08-06T06:53:52;18.70;99.90
12254;DHT22;6189;52.526;13.390;2023-08-06T06:56:41;18.70;99.90
12254;DHT22;6189;52.526;13.390;2023-08-06T06:59:28;18.70;99.90
12254;DHT22;6189;52.526;13.390;2023-08-06T07:02:17;18.60;99.90
12254;DHT22;6189;52.526;13.390;2023-08-06T07:05:05;18.60;99.90
12254;DHT22;6189;52.526;13.390;2023-08-06T07:07:53;18.70;99.90
12254;DHT22;6189;52.526;13.390;2023-08-06T07:10:41;18.60;99.90
12254;DHT22;6189;52.526;13.390;2023-08-06T07:13:30;18.70;99.90
12254;DHT22;6189;52.526;13.390;2023-08-06T07:16:17;18.70;99.90
12254;DHT22;6189;52.526;13.390;2023-08-06T07:19:05;18.80;99.90
12254;DHT22;6189;52.526;13.390;2023-08-06T07:21:54;18.70;99.90
12254;DHT22;6189;52.526;13.390;2023-08-06T07:24:42;18.80;99.90
12254;DHT22;6189;52.526;13.390;2023-08-06T07:27:30;18.80;99.90
12254;DHT22;6189;52.526;13.390;2023-08-06T07:30:21;18.80;99.90
12254;DHT22;6189;52.526;13.390;2023-08-06T07:33:09;18.80;99.90
12254;DHT22;6189;52.526;13.390;2023-08-06T07:35:57;18.80;99.90
12254;DHT22;6189;52.526;13.390;2023-08-06T07:38:44;18.80;99.90
12254;DHT22;6189;52.526;13.390;2023-08-06T07:41:31;18.80;99.90
12254;DHT22;6189;52.526;13.390;2023-08-06T07:44:19;18.80;99.90
12254;DHT22;6189;52.526;13.390;2023-08-06T07:47:09;18.90;99.90
12254;DHT22;6189;52.526;13.390;2023-08-06T07:49:57;18.80;99.90
12254;DHT22;6189;52.526;13.390;2023-08-06T07:52:45;18.80;99.90
12254;DHT22;6189;52.526;13.390;2023-08-06T07:55:32;18.80;99.90
12254;DHT22;6189;52.526;13.390;2023-08-06T07:58:20;18.80;99.90
12254;DHT22;6189;52.526;13.390;2023-08-06T08:01:07;18.80;99.90
12254;DHT22;6189;52.526;13.390;2023-08-06T08:03:56;18.80;99.90
12254;DHT22;6189;52.526;13.390;2023-08-06T08:06:44;18.90;99.90
12254;DHT22;6189;52.526;13.390;2023-08-06T08:09:32;18.90;99.90
12254;DHT22;6189;52.526;13.390;2023-08-06T08:12:19;18.70;99.90
12254;DHT22;6189;52.526;13.390;2023-08-06T08:15:07;18.70;99.90
12254;DHT22;6189;52.526;13.390;2023-08-06T08:17:57;18.50;99.90
12254;DHT22;6189;52.526;13.390;2023-08-06T08:20:46;18.60;99.90
12254;DHT22;6189;52.526;13.390;2023-08-06T08:23:35;18.70;99.90
12254;DHT22;6189;52.526;13.390;2023-08-06T08:26:22;18.80;99.90
12254;DHT22;6189;52.526;13.390;2023-08-06T08:29:15;18.80;99.90
12254;DHT22;6189;52.526;13.390;2023-08-06T08:32:02;18.90;99.90
12254;DHT22;6189;52.526;13.390;2023-08-06T08:34:49;19.00;99.90
12254;DHT22;6189;52.526;13.390;2023-08-06T08:37:39;19.00;99.90
12254;DHT22;6189;52.526;13.390;2023-08-06T08:40:27;19.00;99.90
12254;DHT22;6189;52.526;13.390;2023-08-06T08:43:16;18.90;99.90
12254;DHT22;6189;52.526;13.390;2023-08-06T08:46:04;19.00;99.90
12254;DHT22;6189;52.526;13.390;2023-08-06T08:48:52;19.00;99.90
12254;DHT22;6189;52.526;13.390;2023-08-06T08:51:40;19.00;99.90
12254;DHT22;6189;52.526;13.390;2023-08-06T08:54:29;19.00;99.90
12254;DHT22;6189;52.526;13.390;2023-08-06T08:57:19;19.00;99.90
12254;DHT22;6189;52.526;13.390;2023-08-06T09:00:07;19.00;99.90
12254;DHT22;6189;52.526;13.390;2023-08-06T09:02:55;19.00;99.90
12254;DHT22;6189;52.526;13.390;2023-08-06T09:05:44;19.00;99.90
12254;DHT22;6189;52.526;13.390;2023-08-06T09:08:33;19.00;99.90
12254;DHT22;6189;52.526;13.390;2023-08-06T09:11:23;19.00;99.90
12254;DHT22;6189;52.526;13.390;2023-08-06T09:14:10;19.00;99.90
12254;DHT22;6189;52.526;13.390;2023-08-06T09:16:57;19.10;99.90
12254;DHT22;6189;52.526;13.390;2023-08-06T09:19:45;19.10;99.90
12254;DHT22;6189;52.526;13.390;2023-08-06T09:22:35;19.20;99.90
12254;DHT22;6189;52.526;13.390;2023-08-06T09:25:23;19.20;99.90
12254;DHT22;6189;52.526;13.390;2023-08-06T09:28:15;19.20;99.90
12254;DHT22;6189;52.526;13.390;2023-08-06T09:31:03;19.20;99.90
12254;DHT22;6189;52.526;13.390;2023-08-06T09:33:50;19.20;99.90
12254;DHT22;6189;52.526;13.390;2023-08-06T09:36:39;19.20;99.90
12254;DHT22;6189;52.526;13.390;2023-08-06T09:39:27;19.20;99.90
12254;DHT22;6189;52.526;13.390;2023-08-06T09:42:15;19.30;99.90
12254;DHT22;6189;52.526;13.390;2023-08-06T09:45:07;19.20;99.90
12254;DHT22;6189;52.526;13.390;2023-08-06T09:47:55;19.20;99.90
12254;DHT22;6189;52.526;13.390;2023-08-06T09:50:42;19.10;99.90
12254;DHT22;6189;52.526;13.390;2023-08-06T09:53:33;19.10;99.90
12254;DHT22;6189;52.526;13.390;2023-08-06T09:56:21;19.20;99.90
12254;DHT22;6189;52.526;13.390;2023-08-06T09:59:12;19.20;99.90
12254;DHT22;6189;52.526;13.390;2023-08-06T10:02:03;19.20;99.90
12254;DHT22;6189;52.526;13.390;2023-08-06T10:04:58;19.20;99.90
12254;DHT22;6189;52.526;13.390;2023-08-06T10:07:45;19.20;99.90
12254;DHT22;6189;52.526;13.390;2023-08-06T10:10:34;19.30;99.90
12254;DHT22;6189;52.526;13.390;2023-08-06T10:13:22;19.30;99.90
12254;DHT22;6189;52.526;13.390;2023-08-06T10:16:11;19.30;99.90
12254;DHT22;6189;52.526;13.390;2023-08-06T10:19:00;19.30;99.90
12254;DHT22;6189;52.526;13.390;2023-08-06T10:24:54;19.20;99.90
12254;DHT22;6189;52.526;13.390;2023-08-06T10:27:54;19.30;99.90
12254;DHT22;6189;52.526;13.390;2023-08-06T10:30:42;19.20;99.90
12254;DHT22;6189;52.526;13.390;2023-08-06T10:33:39;19.20;99.90
12254;DHT22;6189;52.526;13.390;2023-08-06T10:36:28;19.30;99.90
12254;DHT22;6189;52.526;13.390;2023-08-06T10:39:15;19.30;99.90
12254;DHT22;6189;52.526;13.390;2023-08-06T10:42:03;19.30;99.90
12254;DHT22;6189;52.526;13.390;2023-08-06T10:47:57;19.30;99.90
12254;DHT22;6189;52.526;13.390;2023-08-06T10:50:44;19.20;99.90
12254;DHT22;6189;52.526;13.390;2023-08-06T10:53:33;19.20;99.90
12254;DHT22;6189;52.526;13.390;2023-08-06T10:56:21;19.30;99.90
12254;DHT22;6189;52.526;13.390;2023-08-06T10:59:09;19.30;99.90
12254;DHT22;6189;52.526;13.390;2023-08-06T11:01:57;19.30;99.90
12254;DHT22;6189;52.526;13.390;2023-08-06T11:04:45;19.30;99.90
12254;DHT22;6189;52.526;13.390;2023-08-06T11:07:32;19.30;99.90
12254;DHT22;6189;52.526;13.390;2023-08-06T11:10:21;19.20;99.90
12254;DHT22;6189;52.526;13.390;2023-08-06T11:13:09;19.20;99.90
12254;DHT22;6189;52.526;13.390;2023-08-06T11:15:57;19.30;99.90
12254;DHT22;6189;52.526;13.390;2023-08-06T11:18:44;19.30;99.90
12254;DHT22;6189;52.526;13.390;2023-08-06T11:21:31;19.30;99.90
12254;DHT22;6189;52.526;13.390;2023-08-06T11:24:20;19.30;99.90
12254;DHT22;6189;52.526;13.390;2023-08-06T11:27:13;19.40;99.90
12254;DHT22;6189;52.526;13.390;2023-08-06T11:30:02;19.40;99.90
12254;DHT22;6189;52.526;13.390;2023-08-06T11:32:49;19.50;99.90
12254;DHT22;6189;52.526;13.390;2023-08-06T11:35:36;19.40;99.90
12254;DHT22;6189;52.526;13.390;2023-08-06T11:38:24;19.40;99.90
12254;DHT22;6189;52.526;13.390;2023-08-06T11:41:20;19.30;99.90
12254;DHT22;6189;52.526;13.390;2023-08-06T11:44:10;19.30;99.90
12254;DHT22;6189;52.526;13.390;2023-08-06T11:46:57;19.20;99.90
12254;DHT22;6189;52.526;13.390;2023-08-06T11:49:47;19.20;99.90
12254;DHT22;6189;52.526;13.390;2023-08-06T11:52:38;19.20;99.90
12254;DHT22;6189;52.526;13.390;2023-08-06T11:55:28;19.30;99.90
12254;DHT22;6189;52.526;13.390;2023-08-06T11:58:16;19.30;99.90
12254;DHT22;6189;52.526;13.390;2023-08-06T12:01:08;19.30;99.90
12254;DHT22;6189;52.526;13.390;2023-08-06T12:03:58;19.40;99.90
12254;DHT22;6189;52.526;13.390;2023-08-06T12:06:45;19.40;99.90
12254;DHT22;6189;52.526;13.390;2023-08-06T12:09:33;19.30;99.90
12254;DHT22;6189;52.526;13.390;2023-08-06T12:12:22;19.20;99.90
12254;DHT22;6189;52.526;13.390;2023-08-06T12:15:09;19.20;99.90
12254;DHT22;6189;52.526;13.390;2023-08-06T12:17:58;19.30;99.90
12254;DHT22;6189;52.526;13.390;2023-08-06T12:20:45;19.40;99.90
12254;DHT22;6189;52.526;13.390;2023-08-06T12:23:32;19.50;99.90
12254;DHT22;6189;52.526;13.390;2023-08-06T12:26:19;19.50;99.90
12254;DHT22;6189;52.526;13.390;2023-08-06T12:29:07;19.50;99.90
12254;DHT22;6189;52.526;13.390;2023-08-06T12:31:54;19.50;99.90
12254;DHT22;6189;52.526;13.390;2023-08-06T12:34:43;19.50;99.90
12254;DHT22;6189;52.526;13.390;2023-08-06T12:37:30;19.50;99.90
12254;DHT22;6189;52.526;13.390;2023-08-06T12:40:18;19.60;99.90
12254;DHT22;6189;52.526;13.390;2023-08-06T12:43:05;19.60;99.90
12254;DHT22;6189;52.526;13.390;2023-08-06T12:45:52;19.60;99.90
12254;DHT22;6189;52.526;13.390;2023-08-06T12:48:39;19.50;99.90
12254;DHT22;6189;52.526;13.390;2023-08-06T12:51:28;19.50;99.90
12254;DHT22;6189;52.526;13.390;2023-08-06T12:54:16;19.60;99.90
12254;DHT22;6189;52.526;13.390;2023-08-06T12:57:03;19.60;99.90
12254;DHT22;6189;52.526;13.390;2023-08-06T12:59:50;19.60;99.90
12254;DHT22;6189;52.526;13.390;2023-08-06T13:02:38;19.60;99.90
12254;DHT22;6189;52.526;13.390;2023-08-06T13:05:25;19.60;99.90
12254;DHT22;6189;52.526;13.390;2023-08-06T13:08:14;19.70;99.90
12254;DHT22;6189;52.526;13.390;2023-08-06T13:11:01;19.60;99.90
12254;DHT22;6189;52.526;13.390;2023-08-06T13:13:48;19.50;99.90
12254;DHT22;6189;52.526;13.390;2023-08-06T13:16:36;19.50;99.90
12254;DHT22;6189;52.526;13.390;2023-08-06T13:19:23;19.40;99.90
12254;DHT22;6189;52.526;13.390;2023-08-06T13:22:10;19.50;99.90
12254;DHT22;6189;52.526;13.390;2023-08-06T13:24:59;19.40;99.90
12254;DHT22;6189;52.526;13.390;2023-08-06T13:27:46;19.50;99.90
12254;DHT22;6189;52.526;13.390;2023-08-06T13:30:35;19.40;99.90
12254;DHT22;6189;52.526;13.390;2023-08-06T13:33:27;19.30;99.90
12254;DHT22;6189;52.526;13.390;2023-08-06T13:36:14;19.30;99.90
12254;DHT22;6189;52.526;13.390;2023-08-06T13:39:02;19.30;99.90
12254;DHT22;6189;52.526;13.390;2023-08-06T13:41:52;19.30;99.90
12254;DHT22;6189;52.526;13.390;2023-08-06T13:44:41;19.30;99.90
12254;DHT22;6189;52.526;13.390;2023-08-06T13:47:29;19.30;99.90
12254;DHT22;6189;52.526;13.390;2023-08-06T13:50:16;19.30;99.90
12254;DHT22;6189;52.526;13.390;2023-08-06T13:53:03;19.30;99.90
12254;DHT22;6189;52.526;13.390;2023-08-06T13:55:50;19.40;99.90
12254;DHT22;6189;52.526;13.390;2023-08-06T13:58:39;19.30;99.90
12254;DHT22;6189;52.526;13.390;2023-08-06T14:01:26;19.30;99.90
12254;DHT22;6189;52.526;13.390;2023-08-06T14:04:15;19.30;99.90
12254;DHT22;6189;52.526;13.390;2023-08-06T14:07:03;19.30;99.90
12254;DHT22;6189;52.526;13.390;2023-08-06T14:09:50;19.30;99.90
12254;DHT22;6189;52.526;13.390;2023-08-06T14:12:37;19.30;99.90
12254;DHT22;6189;52.526;13.390;2023-08-06T14:15:26;19.30;99.90
12254;DHT22;6189;52.526;13.390;2023-08-06T14:18:13;19.30;99.90
12254;DHT22;6189;52.526;13.390;2023-08-06T14:21:01;19.30;99.90
12254;DHT22;6189;52.526;13.390;2023-08-06T14:23:48;19.40;99.90
12254;DHT22;6189;52.526;13.390;2023-08-06T14:26:35;19.40;99.90
12254;DHT22;6189;52.526;13.390;2023-08-06T14:29:23;19.40;99.90
12254;DHT22;6189;52.526;13.390;2023-08-06T14:32:12;19.40;99.90
12254;DHT22;6189;52.526;13.390;2023-08-06T14:34:59;19.40;99.90
12254;DHT22;6189;52.526;13.390;2023-08-06T14:37:46;19.30;99.90
12254;DHT22;6189;52.526;13.390;2023-08-06T14:40:33;19.20;99.90
12254;DHT22;6189;52.526;13.390;2023-08-06T14:43:23;19.30;99.90
12254;DHT22;6189;52.526;13.390;2023-08-06T14:46:10;19.30;99.90
12254;DHT22;6189;52.526;13.390;2023-08-06T14:48:59;19.20;99.90
12254;DHT22;6189;52.526;13.390;2023-08-06T14:51:47;18.90;99.90
12254;DHT22;6189;52.526;13.390;2023-08-06T14:54:34;18.90;99.90
12254;DHT22;6189;52.526;13.390;2023-08-06T14:57:21;19.00;99.90
12254;DHT22;6189;52.526;13.390;2023-08-06T15:00:13;19.00;99.90
12254;DHT22;6189;52.526;13.390;2023-08-06T15:03:00;19.00;99.90
12254;DHT22;6189;52.526;13.390;2023-08-06T15:05:49;19.10;99.90
12254;DHT22;6189;52.526;13.390;2023-08-06T15:08:36;19.10;99.90
12254;DHT22;6189;52.526;13.390;2023-08-06T15:11:23;19.10;99.90
12254;DHT22;6189;52.526;13.390;2023-08-06T15:14:11;19.10;99.90
12254;DHT22;6189;52.526;13.390;2023-08-06T15:17:00;19.10;99.90
12254;DHT22;6189;52.526;13.390;2023-08-06T15:19:47;19.10;99.90
12254;DHT22;6189;52.526;13.390;2023-08-06T15:22:36;19.20;99.90
12254;DHT22;6189;52.526;13.390;2023-08-06T15:25:23;19.20;99.90
12254;DHT22;6189;52.526;13.390;2023-08-06T15:28:10;19.10;99.90
12254;DHT22;6189;52.526;13.390;2023-08-06T15:30:58;19.10;99.90
12254;DHT22;6189;52.526;13.390;2023-08-06T15:33:45;19.10;99.90
12254;DHT22;6189;52.526;13.390;2023-08-06T15:36:33;19.10;99.90
12254;DHT22;6189;52.526;13.390;2023-08-06T15:39:22;19.10;99.90
12254;DHT22;6189;52.526;13.390;2023-08-06T15:42:09;19.00;99.90
12254;DHT22;6189;52.526;13.390;2023-08-06T15:44:56;19.10;99.90
12254;DHT22;6189;52.526;13.390;2023-08-06T15:47:43;19.10;99.90
12254;DHT22;6189;52.526;13.390;2023-08-06T15:50:30;19.00;99.90
12254;DHT22;6189;52.526;13.390;2023-08-06T15:53:17;18.90;99.90
12254;DHT22;6189;52.526;13.390;2023-08-06T15:56:06;18.90;99.90
12254;DHT22;6189;52.526;13.390;2023-08-06T15:58:53;18.90;99.90
12254;DHT22;6189;52.526;13.390;2023-08-06T16:01:41;18.90;99.90
12254;DHT22;6189;52.526;13.390;2023-08-06T16:04:29;18.90;99.90
12254;DHT22;6189;52.526;13.390;2023-08-06T16:07:16;18.80;99.90
12254;DHT22;6189;52.526;13.390;2023-08-06T16:10:05;18.80;99.90
12254;DHT22;6189;52.526;13.390;2023-08-06T16:12:54;18.80;99.90
12254;DHT22;6189;52.526;13.390;2023-08-06T16:15:41;18.80;99.90
12254;DHT22;6189;52.526;13.390;2023-08-06T16:18:28;18.80;99.90
12254;DHT22;6189;52.526;13.390;2023-08-06T16:21:16;18.80;99.90
12254;DHT22;6189;52.526;13.390;2023-08-06T16:24:03;18.70;99.90
12254;DHT22;6189;52.526;13.390;2023-08-06T16:26:50;18.70;99.90
12254;DHT22;6189;52.526;13.390;2023-08-06T16:29:43;18.60;99.90
12254;DHT22;6189;52.526;13.390;2023-08-06T16:32:31;18.60;99.90
12254;DHT22;6189;52.526;13.390;2023-08-06T16:35:20;18.70;99.90
12254;DHT22;6189;52.526;13.390;2023-08-06T16:38:08;18.80;99.90
12254;DHT22;6189;52.526;13.390;2023-08-06T16:40:57;18.70;99.90
12254;DHT22;6189;52.526;13.390;2023-08-06T16:43:46;18.70;99.90
12254;DHT22;6189;52.526;13.390;2023-08-06T16:46:35;18.80;99.90
12254;DHT22;6189;52.526;13.390;2023-08-06T16:49:22;18.70;99.90
12254;DHT22;6189;52.526;13.390;2023-08-06T16:52:09;18.70;99.90
12254;DHT22;6189;52.526;13.390;2023-08-06T16:54:57;18.70;99.90
12254;DHT22;6189;52.526;13.390;2023-08-06T16:57:44;18.70;99.90
12254;DHT22;6189;52.526;13.390;2023-08-06T17:00:31;18.70;99.90
12254;DHT22;6189;52.526;13.390;2023-08-06T17:03:20;18.70;99.90
12254;DHT22;6189;52.526;13.390;2023-08-06T17:06:08;18.50;99.90
12254;DHT22;6189;52.526;13.390;2023-08-06T17:09:00;18.50;99.90
12254;DHT22;6189;52.526;13.390;2023-08-06T17:11:49;18.50;99.90
12254;DHT22;6189;52.526;13.390;2023-08-06T17:14:36;18.50;99.90
12254;DHT22;6189;52.526;13.390;2023-08-06T17:17:23;18.50;99.90
12254;DHT22;6189;52.526;13.390;2023-08-06T17:20:13;18.60;99.90
12254;DHT22;6189;52.526;13.390;2023-08-06T17:23:00;18.30;99.90
12254;DHT22;6189;52.526;13.390;2023-08-06T17:25:49;18.30;99.90
12254;DHT22;6189;52.526;13.390;2023-08-06T17:28:36;18.40;99.90
12254;DHT22;6189;52.526;13.390;2023-08-06T17:31:24;18.40;99.90
12254;DHT22;6189;52.526;13.390;2023-08-06T17:34:11;18.50;99.90
12254;DHT22;6189;52.526;13.390;2023-08-06T17:37:00;18.50;99.90
12254;DHT22;6189;52.526;13.390;2023-08-06T17:39:50;18.40;99.90
12254;DHT22;6189;52.526;13.390;2023-08-06T17:42:38;18.40;99.90
12254;DHT22;6189;52.526;13.390;2023-08-06T17:45:27;18.50;99.90
12254;DHT22;6189;52.526;13.390;2023-08-06T17:48:14;18.50;99.90